createdAt,value
2023-03-05T00:01:19.046Z,96439.31
2023-03-05T00:03:47.541Z,96429.78
2023-03-05T00:06:17.574Z,96438.25
2023-03-05T00:08:45.714Z,96432.75
2023-03-05T00:11:14.353Z,96430.56
2023-03-05T00:13:42.368Z,96431.31
2023-03-05T00:16:12.401Z,96428.34
2023-03-05T00:18:40.690Z,96432.50
2023-03-05T00:21:19.623Z,96425.75
2023-03-05T00:23:47.416Z,96424.28
2023-03-05T00:26:15.160Z,96431.19
2023-03-05T00:28:43.076Z,96426.63
2023-03-05T00:31:10.838Z,96423.69
2023-03-05T00:33:38.849Z,96425.81
2023-03-05T00:36:07.681Z,96423.22
2023-03-05T00:38:36.886Z,96418.69
2023-03-05T00:41:05.271Z,96418.38
2023-03-05T00:43:32.980Z,96422.97
2023-03-05T00:46:01.300Z,96418.94
2023-03-05T00:48:29.020Z,96412.38
2023-03-05T00:50:56.722Z,96412.88
2023-03-05T00:53:24.763Z,96417.50
2023-03-05T00:55:53.798Z,96410.56
2023-03-05T00:58:21.701Z,96404.38
2023-03-05T01:00:50.489Z,96406.78
2023-03-05T01:03:18.380Z,96403.03
2023-03-05T01:05:46.303Z,96398.19
2023-03-05T01:08:14.016Z,96391.88
2023-03-05T01:10:41.764Z,96397.75
2023-03-05T01:13:11.022Z,96385.69
2023-03-05T01:15:38.778Z,96402.47
2023-03-05T01:18:06.769Z,96400.00
2023-03-05T01:20:35.098Z,96394.16
2023-03-05T01:23:02.837Z,96381.97
2023-03-05T01:25:30.756Z,96382.81
2023-03-05T01:27:58.724Z,96382.63
2023-03-05T01:30:28.129Z,96377.56
2023-03-05T01:32:56.476Z,96372.47
2023-03-05T01:35:26.375Z,96372.00
2023-03-05T01:37:54.384Z,96366.34
2023-03-05T01:40:26.033Z,96368.75
2023-03-05T01:42:59.445Z,96372.16
2023-03-05T01:45:32.463Z,96360.50
2023-03-05T01:48:01.154Z,96362.94
2023-03-05T01:50:30.069Z,96349.38
2023-03-05T01:53:02.138Z,96343.56
2023-03-05T01:55:32.788Z,96347.81
2023-03-05T01:58:03.964Z,96344.25
2023-03-05T02:00:36.077Z,96350.38
2023-03-05T02:03:08.242Z,96337.81
2023-03-05T02:05:38.321Z,96342.09
2023-03-05T02:08:08.600Z,96336.22
2023-03-05T02:10:38.702Z,96332.69
2023-03-05T02:13:09.597Z,96334.03
2023-03-05T02:15:39.535Z,96330.09
2023-03-05T02:18:08.609Z,96331.47
2023-03-05T02:20:45.406Z,96314.16
2023-03-05T02:23:15.287Z,96321.84
2023-03-05T02:25:44.218Z,96308.28
2023-03-05T02:28:17.279Z,96316.88
2023-03-05T02:30:45.523Z,96304.66
2023-03-05T02:33:15.220Z,96307.88
2023-03-05T02:35:44.394Z,96314.22
2023-03-05T02:38:14.862Z,96305.13
2023-03-05T02:40:43.266Z,96305.38
2023-03-05T02:43:11.600Z,96300.84
2023-03-05T02:45:40.837Z,96309.69
2023-03-05T02:48:08.960Z,96300.44
2023-03-05T02:50:39.643Z,96291.13
2023-03-05T02:53:07.663Z,96289.53
2023-03-05T02:55:36.809Z,96289.34
2023-03-05T02:58:04.693Z,96288.28
2023-03-05T03:00:32.425Z,96290.19
2023-03-05T03:03:00.425Z,96278.69
2023-03-05T03:05:28.313Z,96286.09
2023-03-05T03:07:56.024Z,96276.81
2023-03-05T03:10:23.927Z,96279.75
2023-03-05T03:12:53.045Z,96273.88
2023-03-05T03:15:20.929Z,96277.28
2023-03-05T03:17:48.597Z,96263.41
2023-03-05T03:20:18.297Z,96266.06
2023-03-05T03:22:46.873Z,96263.66
2023-03-05T03:25:16.650Z,96258.34
2023-03-05T03:27:44.368Z,96262.31
2023-03-05T03:30:14.920Z,96253.47
2023-03-05T03:32:42.768Z,96257.19
2023-03-05T03:35:11.435Z,96256.72
2023-03-05T03:37:39.995Z,96245.78
2023-03-05T03:40:08.961Z,96245.81
2023-03-05T03:42:36.674Z,96243.97
2023-03-05T03:45:05.341Z,96244.47
2023-03-05T03:47:34.550Z,96247.38
2023-03-05T03:50:02.442Z,96244.19
2023-03-05T03:52:30.139Z,96245.31
2023-03-05T03:55:01.505Z,96249.88
2023-03-05T03:57:30.400Z,96240.84
2023-03-05T03:59:58.188Z,96247.25
2023-03-05T04:02:26.437Z,96243.00
2023-03-05T04:04:55.598Z,96239.00
2023-03-05T04:07:23.351Z,96238.16
2023-03-05T04:09:51.061Z,96229.91
2023-03-05T04:12:18.992Z,96228.88
2023-03-05T04:14:46.852Z,96233.44
2023-03-05T04:17:15.473Z,96219.88
2023-03-05T04:19:43.600Z,96226.59
2023-03-05T04:22:14.547Z,96224.41
2023-03-05T04:24:42.407Z,96219.88
2023-03-05T04:27:10.729Z,96214.06
2023-03-05T04:29:38.512Z,96211.13
2023-03-05T04:32:06.683Z,96207.41
2023-03-05T04:34:35.221Z,96216.13
2023-03-05T04:37:02.937Z,96208.44
2023-03-05T04:39:32.119Z,96209.22
2023-03-05T04:41:59.825Z,96202.38
2023-03-05T04:44:27.551Z,96206.91
2023-03-05T04:46:55.243Z,96205.56
2023-03-05T04:49:22.944Z,96202.38
2023-03-05T04:51:50.662Z,96210.09
2023-03-05T04:54:18.357Z,96204.75
2023-03-05T04:56:47.384Z,96199.41
2023-03-05T04:59:15.056Z,96205.56
2023-03-05T05:01:43.047Z,96200.53
2023-03-05T05:04:10.858Z,96206.66
2023-03-05T05:06:38.566Z,96197.34
2023-03-05T05:09:06.299Z,96195.75
2023-03-05T05:11:34.083Z,96185.63
2023-03-05T05:14:03.478Z,96192.03
2023-03-05T05:16:31.447Z,96192.03
2023-03-05T05:18:59.302Z,96187.75
2023-03-05T05:21:27.021Z,96184.50
2023-03-05T05:23:54.712Z,96184.78
2023-03-05T05:26:22.493Z,96185.09
2023-03-05T05:28:50.195Z,96182.13
2023-03-05T05:31:19.760Z,96170.41
2023-03-05T05:33:49.771Z,96180.53
2023-03-05T05:36:20.041Z,96175.97
2023-03-05T05:38:47.743Z,96173.81
2023-03-05T05:41:17.713Z,96180.47
2023-03-05T05:43:45.684Z,96184.19
2023-03-05T05:46:15.367Z,96184.19
2023-03-05T05:48:45.066Z,96182.88
2023-03-05T05:51:15.770Z,96188.22
2023-03-05T05:53:44.292Z,96185.84
2023-03-05T05:56:13.057Z,96183.44
2023-03-05T05:58:42.146Z,96175.47
2023-03-05T06:01:14.887Z,96181.09
2023-03-05T06:03:44.077Z,96174.41
2023-03-05T06:06:12.566Z,96188.28
2023-03-05T06:08:40.283Z,96184.31
2023-03-05T06:11:08.686Z,96190.66
2023-03-05T06:13:36.818Z,96187.22
2023-03-05T06:16:07.490Z,96182.34
2023-03-05T06:18:35.437Z,96185.59
2023-03-05T06:21:06.661Z,96179.19
2023-03-05T06:23:34.989Z,96193.56
2023-03-05T06:26:04.531Z,96189.28
2023-03-05T06:28:32.929Z,96177.56
2023-03-05T06:31:01.865Z,96183.44
2023-03-05T06:33:29.752Z,96184.78
2023-03-05T06:35:57.976Z,96185.09
2023-03-05T06:38:27.182Z,96188.78
2023-03-05T06:40:55.289Z,96189.56
2023-03-05T06:43:22.987Z,96192.31
2023-03-05T06:45:50.722Z,96189.88
2023-03-05T06:48:18.430Z,96188.56
2023-03-05T06:50:46.122Z,96188.28
2023-03-05T06:53:13.810Z,96186.44
2023-03-05T06:55:42.824Z,96179.25
2023-03-05T06:58:10.511Z,96182.44
2023-03-05T07:00:38.200Z,96183.28
2023-03-05T07:03:05.881Z,96173.16
2023-03-05T07:05:34.311Z,96182.50
2023-03-05T07:08:04.083Z,96164.16
2023-03-05T07:10:31.788Z,96168.13
2023-03-05T07:13:00.808Z,96167.34
2023-03-05T07:15:28.510Z,96163.63
2023-03-05T07:17:56.548Z,96164.19
2023-03-05T07:20:24.257Z,96165.56
2023-03-05T07:22:51.953Z,96164.22
2023-03-05T07:25:21.511Z,96163.16
2023-03-05T07:27:49.699Z,96167.41
2023-03-05T07:30:19.553Z,96165.31
2023-03-05T07:32:47.289Z,96166.09
2023-03-05T07:35:15.174Z,96166.13
2023-03-05T07:37:42.896Z,96161.84
2023-03-05T07:40:11.899Z,96169.84
2023-03-05T07:42:39.654Z,96157.84
2023-03-05T07:45:24.251Z,96159.69
2023-03-05T07:47:52.659Z,96162.13
2023-03-05T07:50:20.677Z,96158.13
2023-03-05T07:52:48.389Z,96144.28
2023-03-05T07:55:16.310Z,96153.88
2023-03-05T07:57:44.050Z,96151.72
2023-03-05T08:00:12.998Z,96161.88
2023-03-05T08:02:42.055Z,96150.19
2023-03-05T08:05:10.187Z,96154.75
2023-03-05T08:07:37.909Z,96152.06
2023-03-05T08:10:06.643Z,96151.22
2023-03-05T08:12:34.408Z,96142.44
2023-03-05T08:15:02.120Z,96147.53
2023-03-05T08:17:29.795Z,96145.97
2023-03-05T08:20:00.199Z,96151.00
2023-03-05T08:22:28.090Z,96141.66
2023-03-05T08:24:55.757Z,96137.41
2023-03-05T08:27:23.440Z,96135.28
2023-03-05T08:29:51.115Z,96140.91
2023-03-05T08:32:18.960Z,96131.81
2023-03-05T08:34:46.677Z,96134.22
2023-03-05T08:37:15.834Z,96140.63
2023-03-05T08:39:43.526Z,96128.09
2023-03-05T08:42:11.191Z,96132.91
2023-03-05T08:44:39.013Z,96132.09
2023-03-05T08:47:07.350Z,96131.53
2023-03-05T08:49:35.031Z,96130.50
2023-03-05T08:52:02.732Z,96130.22
2023-03-05T08:54:31.939Z,96129.44
2023-03-05T08:56:59.640Z,96132.38
2023-03-05T08:59:27.481Z,96118.72
2023-03-05T09:01:55.293Z,96129.16
2023-03-05T09:04:23.022Z,96130.22
2023-03-05T09:06:50.713Z,96129.69
2023-03-05T09:09:20.668Z,96125.69
2023-03-05T09:11:51.876Z,96122.22
2023-03-05T09:14:19.711Z,96122.47
2023-03-05T09:16:47.487Z,96124.63
2023-03-05T09:19:15.290Z,96119.53
2023-03-05T09:21:43.478Z,96122.19
2023-03-05T09:24:11.812Z,96124.84
2023-03-05T09:26:40.953Z,96118.72
2023-03-05T09:29:10.114Z,96116.31
2023-03-05T09:31:38.158Z,96118.72
2023-03-05T09:34:07.279Z,96117.13
2023-03-05T09:36:35.968Z,96122.44
2023-03-05T09:39:04.660Z,96116.84
2023-03-05T09:41:53.545Z,96109.06
2023-03-05T09:44:35.794Z,96109.63
2023-03-05T09:47:19.445Z,96105.88
2023-03-05T09:49:54.300Z,96100.75
2023-03-05T09:52:24.499Z,96101.06
2023-03-05T09:54:56.024Z,96104.28
2023-03-05T09:57:26.855Z,96102.38
2023-03-05T10:00:00.345Z,96094.34
2023-03-05T10:02:33.141Z,96094.63
2023-03-05T10:05:10.530Z,96092.97
2023-03-05T10:07:42.634Z,96089.22
2023-03-05T10:10:16.026Z,96084.41
2023-03-05T10:12:45.806Z,96088.16
2023-03-05T10:15:17.063Z,96074.72
2023-03-05T10:17:58.439Z,96078.41
2023-03-05T10:20:52.197Z,96079.72
2023-03-05T10:23:29.993Z,96076.75
2023-03-05T10:26:07.692Z,96071.97
2023-03-05T10:28:39.254Z,96070.22
2023-03-05T10:31:26.859Z,96073.44
2023-03-05T10:34:07.100Z,96065.06
2023-03-05T10:36:46.813Z,96066.84
2023-03-05T10:39:56.205Z,96060.03
2023-03-05T10:42:35.118Z,96058.91
2023-03-05T10:45:15.140Z,96045.25
2023-03-05T10:47:50.293Z,96042.84
2023-03-05T10:50:21.318Z,96042.28
2023-03-05T10:52:54.005Z,96044.38
2023-03-05T10:55:23.563Z,96043.56
2023-03-05T10:57:51.294Z,96039.81
2023-03-05T11:00:22.409Z,96033.88
2023-03-05T11:03:05.703Z,96034.59
2023-03-05T11:05:43.092Z,96038.03
2023-03-05T11:08:30.342Z,96033.53
2023-03-05T11:11:14.366Z,96030.72
2023-03-05T11:13:54.432Z,96031.81
2023-03-05T11:16:24.500Z,96033.91
2023-03-05T11:19:16.490Z,96032.81
2023-03-05T11:21:45.414Z,96020.56
2023-03-05T11:24:15.329Z,96024.28
2023-03-05T11:26:52.496Z,96017.28
2023-03-05T11:29:24.053Z,96016.69
2023-03-05T11:31:53.122Z,96007.66
2023-03-05T11:34:31.333Z,96013.84
2023-03-05T11:37:06.214Z,96004.69
2023-03-05T11:39:38.234Z,96012.13
2023-03-05T11:42:08.189Z,96001.97
2023-03-05T11:44:44.979Z,96002.81
2023-03-05T11:47:24.042Z,95993.63
2023-03-05T11:49:56.805Z,96000.63
2023-03-05T11:52:30.982Z,95990.03
2023-03-05T11:55:06.345Z,95990.94
2023-03-05T11:57:41.614Z,95985.94
2023-03-05T12:00:16.174Z,95982.22
2023-03-05T12:02:44.470Z,95977.91
2023-03-05T12:05:17.119Z,95977.31
2023-03-05T12:07:51.445Z,95972.53
2023-03-05T12:10:21.918Z,95972.97
2023-03-05T12:12:56.053Z,95971.66
2023-03-05T12:15:34.885Z,95974.69
2023-03-05T12:18:13.683Z,95972.69
2023-03-05T12:20:50.387Z,95955.53
2023-03-05T12:23:20.752Z,95946.25
2023-03-05T12:25:50.422Z,95949.38
2023-03-05T12:28:39.364Z,95940.88
2023-03-05T12:31:26.506Z,95937.63
2023-03-05T12:33:54.269Z,95929.50
2023-03-05T12:36:36.738Z,95923.50
2023-03-05T12:39:52.708Z,95925.66
2023-03-05T12:42:56.414Z,95912.34
2023-03-05T12:45:34.086Z,95912.97
2023-03-05T12:48:41.764Z,95912.41
2023-03-05T12:51:27.865Z,95905.81
2023-03-05T12:53:57.437Z,95909.00
2023-03-05T12:56:30.948Z,95897.72
2023-03-05T12:59:01.298Z,95897.41
2023-03-05T13:01:36.541Z,95896.16
2023-03-05T13:04:11.022Z,95897.19
2023-03-05T13:06:40.237Z,95890.16
2023-03-05T13:09:18.391Z,95887.84
2023-03-05T13:11:49.114Z,95879.41
2023-03-05T13:14:30.967Z,95883.97
2023-03-05T13:16:59.108Z,95882.88
2023-03-05T13:19:27.156Z,95884.50
2023-03-05T13:21:59.206Z,95889.06
2023-03-05T13:24:29.185Z,95884.53
2023-03-05T13:26:57.452Z,95885.34
2023-03-05T13:29:28.174Z,95873.75
2023-03-05T13:31:58.479Z,95875.56
2023-03-05T13:34:40.843Z,95879.13
2023-03-05T13:37:18.933Z,95871.69
2023-03-05T13:39:53.162Z,95873.28
2023-03-05T13:42:23.774Z,95876.97
2023-03-05T13:44:55.718Z,95872.75
2023-03-05T13:47:25.708Z,95872.41
2023-03-05T13:49:59.830Z,95872.56
2023-03-05T13:52:29.753Z,95868.41
2023-03-05T13:54:59.671Z,95865.97
2023-03-05T13:57:36.497Z,95868.56
2023-03-05T14:00:06.395Z,95858.94
2023-03-05T14:02:34.677Z,95861.53
2023-03-05T14:05:02.539Z,95853.00
2023-03-05T14:07:35.212Z,95860.22
2023-03-05T14:10:05.563Z,95858.72
2023-03-05T14:12:37.042Z,95850.44
2023-03-05T14:15:20.754Z,95847.97
2023-03-05T14:17:49.030Z,95854.78
2023-03-05T14:20:24.709Z,95847.09
2023-03-05T14:22:54.698Z,95848.44
2023-03-05T14:25:44.400Z,95841.19
2023-03-05T14:28:26.948Z,95838.13
2023-03-05T14:30:57.431Z,95843.72
2023-03-05T14:33:27.497Z,95838.84
2023-03-05T14:35:57.676Z,95838.69
2023-03-05T14:38:29.807Z,95843.50
2023-03-05T14:40:59.111Z,95833.22
2023-03-05T14:43:26.813Z,95827.63
2023-03-05T14:45:54.556Z,95828.84
2023-03-05T14:48:22.304Z,95829.66
2023-03-05T14:50:56.289Z,95822.75
2023-03-05T14:53:27.937Z,95821.09
2023-03-05T14:55:58.063Z,95817.47
2023-03-05T14:58:28.052Z,95812.41
2023-03-05T15:00:56.776Z,95808.06
2023-03-05T15:03:26.194Z,95809.13
2023-03-05T15:05:56.248Z,95805.38
2023-03-05T15:08:28.729Z,95808.56
2023-03-05T15:10:57.920Z,95802.72
2023-03-05T15:13:25.915Z,95792.50
2023-03-05T15:15:54.813Z,95795.63
2023-03-05T15:18:23.745Z,95792.72
2023-03-05T15:20:53.006Z,95785.53
2023-03-05T15:23:20.941Z,95779.41
2023-03-05T15:25:48.713Z,95776.78
2023-03-05T15:28:18.077Z,95773.59
2023-03-05T15:30:47.966Z,95775.41
2023-03-05T15:33:18.062Z,95764.19
2023-03-05T15:35:45.853Z,95763.91
2023-03-05T15:38:13.646Z,95758.53
2023-03-05T15:40:41.393Z,95757.50
2023-03-05T15:43:09.110Z,95760.63
2023-03-05T15:45:38.449Z,95754.75
2023-03-05T15:48:06.711Z,95749.75
2023-03-05T15:50:34.448Z,95747.41
2023-03-05T15:53:02.200Z,95756.31
2023-03-05T15:55:29.917Z,95749.66
2023-03-05T15:57:57.619Z,95751.25
2023-03-05T16:00:30.804Z,95747.00
2023-03-05T16:02:59.878Z,95740.84
2023-03-05T16:05:27.650Z,95741.19
2023-03-05T16:07:56.561Z,95740.38
2023-03-05T16:10:26.552Z,95746.81
2023-03-05T16:12:57.344Z,95742.03
2023-03-05T16:15:28.018Z,95734.59
2023-03-05T16:17:58.187Z,95737.03
2023-03-05T16:20:27.543Z,95730.66
2023-03-05T16:22:55.321Z,95732.84
2023-03-05T16:25:23.204Z,95730.72
2023-03-05T16:27:50.917Z,95726.72
2023-03-05T16:30:19.280Z,95724.66
2023-03-05T16:32:47.034Z,95722.53
2023-03-05T16:35:14.806Z,95721.72
2023-03-05T16:37:44.091Z,95717.75
2023-03-05T16:40:15.027Z,95728.78
2023-03-05T16:42:43.715Z,95729.34
2023-03-05T16:45:12.733Z,95722.69
2023-03-05T16:47:42.273Z,95715.81
2023-03-05T16:50:12.972Z,95717.97
2023-03-05T16:52:40.746Z,95719.06
2023-03-05T16:55:10.763Z,95724.97
2023-03-05T16:57:39.776Z,95723.13
2023-03-05T17:00:09.103Z,95715.75
2023-03-05T17:02:38.295Z,95716.88
2023-03-05T17:05:07.571Z,95709.69
2023-03-05T17:07:35.751Z,95711.31
2023-03-05T17:10:04.760Z,95702.84
2023-03-05T17:12:34.314Z,95701.28
2023-03-05T17:15:04.989Z,95696.00
2023-03-05T17:17:32.963Z,95699.25
2023-03-05T17:20:05.003Z,95694.16
2023-03-05T17:22:35.965Z,95701.97
2023-03-05T17:25:04.121Z,95696.63
2023-03-05T17:27:32.273Z,95696.88
2023-03-05T17:30:02.238Z,95698.75
2023-03-05T17:32:30.351Z,95697.19
2023-03-05T17:34:58.520Z,95697.97
2023-03-05T17:37:32.180Z,95701.22
2023-03-05T17:40:00.311Z,95687.66
2023-03-05T17:42:28.097Z,95688.50
2023-03-05T17:44:59.224Z,95691.72
2023-03-05T17:47:32.549Z,95697.16
2023-03-05T17:50:01.538Z,95694.56
2023-03-05T17:52:31.080Z,95689.72
2023-03-05T17:54:59.559Z,95698.81
2023-03-05T17:57:27.526Z,95684.66
2023-03-05T17:59:55.314Z,95698.28
2023-03-05T18:02:23.124Z,95693.97
2023-03-05T18:04:52.462Z,95691.50
2023-03-05T18:07:29.275Z,95680.38
2023-03-05T18:09:57.367Z,95679.63
2023-03-05T18:12:28.096Z,95690.06
2023-03-05T18:14:58.538Z,95684.72
2023-03-05T18:20:23.845Z,95680.75
2023-03-05T18:22:57.723Z,95686.38
2023-03-05T18:25:31.144Z,95679.41
2023-03-05T18:28:00.726Z,95683.19
2023-03-05T18:30:35.582Z,95681.06
2023-03-05T18:33:10.442Z,95680.28
2023-03-05T18:35:44.534Z,95680.53
2023-03-05T18:38:13.053Z,95666.13
2023-03-05T18:40:41.348Z,95673.06
2023-03-05T18:43:11.242Z,95673.31
2023-03-05T18:45:39.657Z,95671.44
2023-03-05T18:48:11.805Z,95674.13
2023-03-05T18:50:41.453Z,95666.16
2023-03-05T18:53:13.538Z,95669.38
2023-03-05T18:55:45.687Z,95661.38
2023-03-05T18:58:15.518Z,95653.13
2023-03-05T19:00:50.364Z,95664.09
2023-03-05T19:03:21.180Z,95665.44
2023-03-05T19:05:52.144Z,95654.75
2023-03-05T19:08:29.149Z,95664.88
2023-03-05T19:10:56.896Z,95655.28
2023-03-05T19:13:39.584Z,95662.00
2023-03-05T19:16:09.613Z,95669.50
2023-03-05T19:19:15.257Z,95666.81
2023-03-05T19:21:45.677Z,95655.38
2023-03-05T19:24:17.097Z,95657.81
2023-03-05T19:26:45.128Z,95656.72
2023-03-05T19:29:13.592Z,95656.13
2023-03-05T19:31:42.190Z,95653.53
2023-03-05T19:34:10.017Z,95656.47
2023-03-05T19:36:38.061Z,95652.47
2023-03-05T19:39:08.630Z,95653.03
2023-03-05T19:41:37.155Z,95647.72
2023-03-05T19:44:05.795Z,95644.75
2023-03-05T19:46:34.021Z,95642.59
2023-03-05T19:49:01.827Z,95646.34
2023-03-05T19:51:29.525Z,95641.25
2023-03-05T19:53:57.241Z,95645.53
2023-03-05T19:56:27.296Z,95634.59
2023-03-05T19:58:55.529Z,95635.38
2023-03-05T20:01:25.855Z,95635.41
2023-03-05T20:03:56.810Z,95631.47
2023-03-05T20:06:26.434Z,95633.31
2023-03-05T20:08:54.422Z,95626.13
2023-03-05T20:11:23.049Z,95631.72
2023-03-05T20:13:53.617Z,95623.72
2023-03-05T20:16:23.418Z,95624.53
2023-03-05T20:19:03.060Z,95617.06
2023-03-05T20:21:32.829Z,95615.72
2023-03-05T20:24:03.697Z,95622.38
2023-03-05T20:26:47.785Z,95612.50
2023-03-05T20:29:18.629Z,95625.56
2023-03-05T20:31:47.265Z,95621.59
2023-03-05T20:34:16.780Z,95620.25
2023-03-05T20:36:45.647Z,95616.78
2023-03-05T20:39:13.616Z,95620.00
2023-03-05T20:41:41.844Z,95615.50
2023-03-05T20:44:11.285Z,95615.25
2023-03-05T20:47:23.704Z,95612.34
2023-03-05T20:49:58.925Z,95606.22
2023-03-05T20:52:26.657Z,95609.41
2023-03-05T20:54:54.414Z,95601.13
2023-03-05T20:57:22.521Z,95606.19
2023-03-05T20:59:50.205Z,95613.72
2023-03-05T21:02:19.330Z,95611.53
2023-03-05T21:04:47.251Z,95605.91
2023-03-05T21:07:15.020Z,95600.84
2023-03-05T21:09:42.823Z,95599.78
2023-03-05T21:12:11.961Z,95602.44
2023-03-05T21:14:40.730Z,95595.53
2023-03-05T21:17:12.643Z,95593.66
2023-03-05T21:19:41.708Z,95581.91
2023-03-05T21:22:09.409Z,95584.06
2023-03-05T21:25:20.811Z,95584.06
2023-03-05T21:27:50.628Z,95578.47
2023-03-05T21:30:20.096Z,95579.81
2023-03-05T21:32:48.239Z,95577.69
2023-03-05T21:35:22.418Z,95575.84
2023-03-05T21:37:52.444Z,95571.06
2023-03-05T21:40:21.222Z,95566.56
2023-03-05T21:42:49.480Z,95569.47
2023-03-05T21:45:18.756Z,95567.63
2023-03-05T21:47:46.466Z,95563.66
2023-03-05T21:50:17.912Z,95560.16
2023-03-05T21:52:47.350Z,95559.38
2023-03-05T21:55:17.153Z,95550.31
2023-03-05T21:57:45.290Z,95549.22
2023-03-05T22:00:14.507Z,95544.69
2023-03-05T22:02:42.853Z,95539.91
2023-03-05T22:05:15.472Z,95539.91
2023-03-05T22:07:44.031Z,95535.34
2023-03-05T22:10:15.884Z,95536.94
2023-03-05T22:13:12.353Z,95528.41
2023-03-05T22:15:45.566Z,95532.13
2023-03-05T22:18:14.262Z,95533.22
2023-03-05T22:20:44.758Z,95537.03
2023-03-05T22:23:15.408Z,95534.38
2023-03-05T22:25:45.177Z,95525.31
2023-03-05T22:28:14.093Z,95533.53
2023-03-05T22:30:45.478Z,95538.56
2023-03-05T22:33:13.681Z,95531.06
2023-03-05T22:35:42.561Z,95526.81
2023-03-05T22:38:11.015Z,95520.44
2023-03-05T22:40:42.834Z,95524.97
2023-03-05T22:43:12.421Z,95517.78
2023-03-05T22:45:40.516Z,95520.19
2023-03-05T22:48:09.728Z,95517.53
2023-03-05T22:50:37.517Z,95513.53
2023-03-05T22:53:05.192Z,95512.44
2023-03-05T22:55:34.045Z,95508.25
2023-03-05T22:58:02.824Z,95501.03
2023-03-05T23:00:31.969Z,95490.91
2023-03-05T23:02:59.761Z,95499.16
2023-03-05T23:05:27.461Z,95493.88
2023-03-05T23:07:55.228Z,95493.38
2023-03-05T23:10:27.244Z,95490.44
2023-03-05T23:12:57.837Z,95494.19
2023-03-05T23:15:27.853Z,95483.78
2023-03-05T23:17:57.431Z,95478.75
2023-03-05T23:20:27.650Z,95484.88
2023-03-05T23:22:56.061Z,95487.03
2023-03-05T23:25:25.805Z,95475.81
2023-03-05T23:27:53.982Z,95471.03
2023-03-05T23:30:23.030Z,95477.44
2023-03-05T23:32:53.062Z,95480.91
2023-03-05T23:35:26.207Z,95477.66
2023-03-05T23:37:55.231Z,95471.56
2023-03-05T23:40:24.898Z,95467.03
2023-03-05T23:42:53.362Z,95464.13
2023-03-05T23:45:22.188Z,95463.03
2023-03-05T23:47:51.130Z,95451.84
2023-03-05T23:50:21.803Z,95460.38
2023-03-05T23:52:54.238Z,95459.00
2023-03-05T23:55:24.289Z,95457.44
2023-03-05T23:57:52.220Z,95448.59
